Time;durP1;ratioP1;P1;durP2;ratioP2;P2;SDS_P1;SDS_P2;PMS_P1;PMS_P2;Temp;Humidity;BMP_temperature;BMP_pressure;BME280_temperature;BME280_humidity;BME280_pressure;Samples;Min_cycle;Max_cycle;Signal;HPM_P1;HPM_P2
2023/08/15 00:01:48;;;;;;;5.32;2.17;;;;;;;;;;5022240;28;25083;-80
2023/08/15 00:04:14;;;;;;;7.85;2.28;;;;;;;;;;5010887;28;25103;-77
2023/08/15 00:06:40;;;;;;;6.20;2.60;;;;;;;;;;5023514;28;25073;-77
2023/08/15 00:09:06;;;;;;;8.57;2.28;;;;;;;;;;5014958;28;25084;-78
2023/08/15 00:11:32;;;;;;;11.27;2.38;;;;;;;;;;5030048;28;25091;-80
2023/08/15 00:13:58;;;;;;;6.57;2.15;;;;;;;;;;5024596;28;25101;-79
2023/08/15 00:16:24;;;;;;;9.60;2.20;;;;;;;;;;5043613;28;25063;-76
2023/08/15 00:18:50;;;;;;;15.07;2.67;;;;;;;;;;5028689;28;25076;-79
2023/08/15 00:21:16;;;;;;;6.65;2.53;;;;;;;;;;5032894;28;25081;-75
2023/08/15 00:23:42;;;;;;;11.95;2.63;;;;;;;;;;5028958;28;25062;-78
2023/08/15 00:26:08;;;;;;;8.10;2.92;;;;;;;;;;5020874;28;25062;-78
2023/08/15 00:28:34;;;;;;;8.43;2.05;;;;;;;;;;5014262;28;25093;-76
2023/08/15 00:31:00;;;;;;;9.57;2.95;;;;;;;;;;5030396;28;25071;-77
2023/08/15 00:33:26;;;;;;;9.98;3.38;;;;;;;;;;5038378;28;25074;-76
2023/08/15 00:35:52;;;;;;;10.68;2.88;;;;;;;;;;5017679;28;25074;-78
2023/08/15 00:38:18;;;;;;;11.35;2.30;;;;;;;;;;5031158;28;25066;-77
2023/08/15 00:40:44;;;;;;;15.35;3.22;;;;;;;;;;5030593;28;25079;-79
2023/08/15 00:43:10;;;;;;;16.00;2.45;;;;;;;;;;5027227;28;25070;-77
2023/08/15 00:45:38;;;;;;;6.70;2.10;;;;;;;;;;5017960;28;25067;-78
2023/08/15 00:48:05;;;;;;;11.35;3.15;;;;;;;;;;5028923;28;25087;-78
2023/08/15 00:50:31;;;;;;;6.63;2.00;;;;;;;;;;5028287;28;25053;-76
2023/08/15 00:52:57;;;;;;;12.70;2.55;;;;;;;;;;5015160;28;25074;-78
2023/08/15 00:55:24;;;;;;;8.25;1.95;;;;;;;;;;5025760;28;25096;-75
2023/08/15 00:57:50;;;;;;;10.40;2.97;;;;;;;;;;5018699;28;25064;-77
2023/08/15 01:00:17;;;;;;;10.50;2.40;;;;;;;;;;5030013;28;25052;-78
2023/08/15 01:02:43;;;;;;;11.07;3.33;;;;;;;;;;5022605;28;25121;-76
2023/08/15 01:05:09;;;;;;;6.93;2.30;;;;;;;;;;5024026;28;25065;-77
2023/08/15 01:07:35;;;;;;;12.10;2.92;;;;;;;;;;5020041;28;25061;-79
2023/08/15 01:10:01;;;;;;;6.88;1.98;;;;;;;;;;5025429;28;25085;-78
2023/08/15 01:12:27;;;;;;;11.25;2.38;;;;;;;;;;5026262;28;25103;-77
2023/08/15 01:14:55;;;;;;;11.73;2.40;;;;;;;;;;5018222;28;25062;-77
2023/08/15 01:17:29;;;;;;;10.70;2.85;;;;;;;;;;5034788;28;25141;-77
2023/08/15 01:19:56;;;;;;;12.60;2.80;;;;;;;;;;5015739;28;25068;-77
2023/08/15 01:22:24;;;;;;;9.75;2.33;;;;;;;;;;5023507;28;25102;-77
2023/08/15 01:24:51;;;;;;;9.90;2.40;;;;;;;;;;5023099;28;25067;-76
2023/08/15 01:27:17;;;;;;;12.13;3.00;;;;;;;;;;5023364;28;25049;-78
2023/08/15 01:29:42;;;;;;;12.27;2.67;;;;;;;;;;5031518;28;25078;-77
2023/08/15 01:32:11;;;;;;;9.45;3.05;;;;;;;;;;5038784;28;25048;-76
2023/08/15 01:34:40;;;;;;;15.10;3.00;;;;;;;;;;5016817;28;25077;-80
2023/08/15 01:37:09;;;;;;;11.65;2.72;;;;;;;;;;5041779;28;25069;-78
2023/08/15 01:39:38;;;;;;;7.47;2.50;;;;;;;;;;5030831;28;25067;-78
2023/08/15 01:42:04;;;;;;;10.32;2.80;;;;;;;;;;5024699;28;25064;-78
2023/08/15 01:44:31;;;;;;;11.63;2.60;;;;;;;;;;5033325;28;25091;-77
2023/08/15 01:46:57;;;;;;;6.85;2.38;;;;;;;;;;5023715;28;25060;-79
2023/08/15 01:49:24;;;;;;;10.77;2.67;;;;;;;;;;5024580;28;25054;-81
2023/08/15 01:51:50;;;;;;;11.70;3.55;;;;;;;;;;5017673;28;25069;-81
2023/08/15 01:54:16;;;;;;;11.00;2.72;;;;;;;;;;5027091;28;25053;-78
2023/08/15 01:56:42;;;;;;;10.40;3.13;;;;;;;;;;5013451;28;25133;-79
2023/08/15 01:59:08;;;;;;;11.60;2.85;;;;;;;;;;5019331;28;25067;-80
2023/08/15 02:01:34;;;;;;;9.93;2.63;;;;;;;;;;5023828;28;25065;-78
2023/08/15 02:04:00;;;;;;;10.45;2.85;;;;;;;;;;5013394;28;25083;-77
2023/08/15 02:06:26;;;;;;;13.57;4.03;;;;;;;;;;5029801;28;25099;-78
2023/08/15 02:08:52;;;;;;;15.48;2.75;;;;;;;;;;5022140;28;25062;-79
2023/08/15 02:11:18;;;;;;;8.38;2.55;;;;;;;;;;5035392;28;25060;-78
2023/08/15 02:13:44;;;;;;;16.58;3.55;;;;;;;;;;5025259;28;25093;-77
2023/08/15 02:16:10;;;;;;;11.07;2.50;;;;;;;;;;5025201;28;25049;-79
2023/08/15 02:18:36;;;;;;;10.80;2.90;;;;;;;;;;5019213;28;25105;-78
2023/08/15 02:21:02;;;;;;;10.57;2.42;;;;;;;;;;5022145;28;25068;-79
2023/08/15 02:23:28;;;;;;;9.32;3.10;;;;;;;;;;5030648;28;25049;-78
2023/08/15 02:25:55;;;;;;;11.15;3.08;;;;;;;;;;5035643;28;25127;-78
2023/08/15 02:28:21;;;;;;;14.93;3.50;;;;;;;;;;5021624;28;25051;-79
2023/08/15 02:30:47;;;;;;;12.02;2.92;;;;;;;;;;5032624;28;25057;-79
2023/08/15 02:33:13;;;;;;;5.55;2.67;;;;;;;;;;5031739;28;25078;-78
2023/08/15 02:35:41;;;;;;;9.05;2.90;;;;;;;;;;5022262;28;25059;-78
2023/08/15 02:38:07;;;;;;;13.35;3.65;;;;;;;;;;5029460;28;25062;-79
2023/08/15 02:40:33;;;;;;;10.05;3.15;;;;;;;;;;5024744;28;25071;-77
2023/08/15 02:43:00;;;;;;;7.95;3.00;;;;;;;;;;5024758;28;25055;-78
2023/08/15 02:45:26;;;;;;;7.82;3.08;;;;;;;;;;5012129;28;25087;-79
2023/08/15 02:47:52;;;;;;;12.50;4.13;;;;;;;;;;5023882;28;25046;-77
2023/08/15 02:50:18;;;;;;;13.05;3.25;;;;;;;;;;5038315;28;25085;-79
2023/08/15 02:52:44;;;;;;;10.63;3.30;;;;;;;;;;5026898;28;25059;-76
2023/08/15 02:55:10;;;;;;;13.25;3.90;;;;;;;;;;5031659;28;25092;-77
2023/08/15 02:57:36;;;;;;;11.07;4.10;;;;;;;;;;5025608;28;25096;-78
2023/08/15 03:00:03;;;;;;;14.63;3.67;;;;;;;;;;5026229;28;25074;-79
2023/08/15 03:02:29;;;;;;;13.82;3.65;;;;;;;;;;5024796;28;25083;-78
2023/08/15 03:04:55;;;;;;;16.25;3.42;;;;;;;;;;5035002;28;25053;-75
2023/08/15 03:07:21;;;;;;;7.30;2.63;;;;;;;;;;5033285;28;25159;-80
2023/08/15 03:09:47;;;;;;;9.98;3.65;;;;;;;;;;5030364;28;25060;-79
2023/08/15 03:12:13;;;;;;;11.52;3.35;;;;;;;;;;5027198;28;25070;-78
2023/08/15 03:14:39;;;;;;;13.48;3.45;;;;;;;;;;5024852;28;25083;-79
2023/08/15 03:17:07;;;;;;;13.98;3.83;;;;;;;;;;5029700;28;25088;-78
2023/08/15 03:19:33;;;;;;;9.82;3.15;;;;;;;;;;5019591;28;25077;-78
2023/08/15 03:21:59;;;;;;;14.23;3.75;;;;;;;;;;5025286;28;25069;-77
2023/08/15 03:24:28;;;;;;;12.10;3.22;;;;;;;;;;5016111;28;25159;-80
2023/08/15 03:26:54;;;;;;;11.45;3.25;;;;;;;;;;5010513;28;25101;-79
2023/08/15 03:29:20;;;;;;;9.93;2.72;;;;;;;;;;5027286;28;25076;-79
2023/08/15 03:31:48;;;;;;;13.88;3.63;;;;;;;;;;5039944;28;25100;-80
2023/08/15 03:34:14;;;;;;;8.07;3.15;;;;;;;;;;5028238;28;25076;-82
2023/08/15 03:36:40;;;;;;;8.55;3.65;;;;;;;;;;5030928;28;25058;-79
2023/08/15 03:39:07;;;;;;;14.38;3.28;;;;;;;;;;5034105;28;25058;-79
2023/08/15 03:41:33;;;;;;;14.27;3.22;;;;;;;;;;5030976;28;25055;-80
2023/08/15 03:43:58;;;;;;;9.30;3.42;;;;;;;;;;5024901;28;25118;-81
2023/08/15 03:46:24;;;;;;;11.00;3.58;;;;;;;;;;5040649;28;25059;-82
2023/08/15 03:48:50;;;;;;;9.75;2.85;;;;;;;;;;5027135;28;25108;-81
2023/08/15 03:51:16;;;;;;;15.25;4.03;;;;;;;;;;5044412;28;25098;-80
2023/08/15 03:53:43;;;;;;;12.57;3.45;;;;;;;;;;5030758;28;25055;-80
2023/08/15 03:56:09;;;;;;;13.15;3.35;;;;;;;;;;5037079;28;25068;-77
2023/08/15 03:58:35;;;;;;;15.98;3.55;;;;;;;;;;5018188;28;25073;-80
2023/08/15 04:01:01;;;;;;;10.90;3.60;;;;;;;;;;5026031;28;25088;-81
2023/08/15 04:03:28;;;;;;;9.68;4.30;;;;;;;;;;5034291;28;25055;-79
2023/08/15 04:05:55;;;;;;;18.70;4.05;;;;;;;;;;5015585;28;25056;-78
2023/08/15 04:08:21;;;;;;;13.32;4.18;;;;;;;;;;5028186;28;25061;-76
2023/08/15 04:10:47;;;;;;;9.50;3.38;;;;;;;;;;5030211;28;25065;-77
2023/08/15 04:13:14;;;;;;;20.27;4.28;;;;;;;;;;5017078;28;25056;-76
2023/08/15 04:15:40;;;;;;;14.07;3.55;;;;;;;;;;5012588;28;25067;-79
2023/08/15 04:18:07;;;;;;;18.45;4.75;;;;;;;;;;5014617;28;25059;-77
2023/08/15 04:20:37;;;;;;;11.95;3.50;;;;;;;;;;5028459;28;25067;-78
2023/08/15 04:23:03;;;;;;;15.88;3.80;;;;;;;;;;5017033;28;25156;-77
2023/08/15 04:25:29;;;;;;;12.75;3.42;;;;;;;;;;5023720;28;25078;-77
2023/08/15 04:27:55;;;;;;;12.07;4.57;;;;;;;;;;5022415;28;25072;-78
2023/08/15 04:30:22;;;;;;;17.30;4.18;;;;;;;;;;5023410;28;25109;-76
2023/08/15 04:32:48;;;;;;;9.73;2.85;;;;;;;;;;5011006;28;25096;-78
2023/08/15 04:35:14;;;;;;;10.07;3.75;;;;;;;;;;5025375;28;25111;-77
2023/08/15 04:37:40;;;;;;;15.07;3.85;;;;;;;;;;5019568;28;25136;-77
2023/08/15 04:40:14;;;;;;;16.52;3.67;;;;;;;;;;5016782;28;25095;-76
2023/08/15 04:42:41;;;;;;;12.85;3.50;;;;;;;;;;5018968;28;25041;-78
2023/08/15 04:45:08;;;;;;;16.30;4.72;;;;;;;;;;5009423;28;25059;-79
2023/08/15 04:47:34;;;;;;;14.05;3.53;;;;;;;;;;5030016;28;25062;-77
2023/08/15 04:50:00;;;;;;;13.63;3.45;;;;;;;;;;5029520;28;25106;-78
2023/08/15 04:52:26;;;;;;;15.55;4.50;;;;;;;;;;5003943;28;25098;-78
2023/08/15 04:54:52;;;;;;;13.70;3.67;;;;;;;;;;5024904;28;25071;-77
2023/08/15 04:57:18;;;;;;;14.07;3.50;;;;;;;;;;5025782;28;25065;-77
2023/08/15 04:59:44;;;;;;;17.73;3.47;;;;;;;;;;5019263;28;25072;-78
2023/08/15 05:02:10;;;;;;;7.43;3.50;;;;;;;;;;5023992;28;25077;-76
2023/08/15 05:04:36;;;;;;;11.80;3.90;;;;;;;;;;5026825;28;25056;-78
2023/08/15 05:07:02;;;;;;;13.55;3.85;;;;;;;;;;5016193;28;25140;-79
2023/08/15 05:09:29;;;;;;;8.93;3.70;;;;;;;;;;5022980;28;25048;-78
2023/08/15 05:11:55;;;;;;;10.15;3.38;;;;;;;;;;5016431;28;25051;-79
2023/08/15 05:14:22;;;;;;;14.73;4.38;;;;;;;;;;5023732;28;25098;-78
2023/08/15 05:16:48;;;;;;;15.15;4.40;;;;;;;;;;5021796;28;25063;-78
2023/08/15 05:19:14;;;;;;;15.40;4.97;;;;;;;;;;5018550;28;25099;-77
2023/08/15 05:21:41;;;;;;;14.77;4.28;;;;;;;;;;5016314;28;25061;-79
2023/08/15 05:24:07;;;;;;;11.02;4.03;;;;;;;;;;5016067;28;25065;-76
2023/08/15 05:26:33;;;;;;;13.57;3.80;;;;;;;;;;5015164;28;25049;-75
2023/08/15 05:28:59;;;;;;;13.27;3.42;;;;;;;;;;5014335;28;25067;-76
2023/08/15 05:31:25;;;;;;;8.60;3.83;;;;;;;;;;5022387;28;25104;-76
2023/08/15 05:33:51;;;;;;;12.32;3.50;;;;;;;;;;5026567;28;25096;-78
2023/08/15 05:36:17;;;;;;;9.85;3.85;;;;;;;;;;5018659;28;25062;-77
2023/08/15 05:38:44;;;;;;;13.82;4.10;;;;;;;;;;5014553;28;25074;-76
2023/08/15 05:41:10;;;;;;;9.50;3.63;;;;;;;;;;5022745;28;25093;-77
2023/08/15 05:43:36;;;;;;;13.18;3.65;;;;;;;;;;5026927;28;25086;-79
2023/08/15 05:46:02;;;;;;;17.40;4.47;;;;;;;;;;5018253;28;25081;-77
2023/08/15 05:48:30;;;;;;;19.42;3.75;;;;;;;;;;5022510;28;25084;-78
2023/08/15 05:50:56;;;;;;;10.55;4.32;;;;;;;;;;5031596;28;25090;-78
2023/08/15 05:53:23;;;;;;;12.80;3.95;;;;;;;;;;5018268;28;25068;-79
2023/08/15 05:55:49;;;;;;;15.18;4.05;;;;;;;;;;5032816;28;25049;-80
2023/08/15 05:58:15;;;;;;;13.85;4.53;;;;;;;;;;5035226;28;25113;-80
2023/08/15 06:00:42;;;;;;;17.10;4.55;;;;;;;;;;5047727;28;25069;-78
2023/08/15 06:03:08;;;;;;;19.13;4.68;;;;;;;;;;5018863;28;25071;-78
2023/08/15 06:05:34;;;;;;;14.18;4.18;;;;;;;;;;5031702;28;25074;-79
2023/08/15 06:08:00;;;;;;;14.57;4.10;;;;;;;;;;5017952;28;25086;-78
2023/08/15 06:10:27;;;;;;;11.70;4.10;;;;;;;;;;5017169;28;25062;-76
2023/08/15 06:12:53;;;;;;;14.68;4.90;;;;;;;;;;5027853;28;25168;-77
2023/08/15 06:15:19;;;;;;;11.77;3.97;;;;;;;;;;5023574;28;25390;-78
2023/08/15 06:17:45;;;;;;;19.95;4.70;;;;;;;;;;5022308;28;25074;-77
2023/08/15 06:20:11;;;;;;;15.05;5.40;;;;;;;;;;5021038;28;25145;-77
2023/08/15 06:22:37;;;;;;;16.10;4.28;;;;;;;;;;5030511;28;25052;-77
2023/08/15 06:25:04;;;;;;;15.90;4.00;;;;;;;;;;5029177;28;25082;-78
2023/08/15 06:27:30;;;;;;;25.77;5.53;;;;;;;;;;5030711;28;25103;-78
2023/08/15 06:29:56;;;;;;;13.85;3.88;;;;;;;;;;5018336;28;25071;-77
2023/08/15 06:32:28;;;;;;;10.27;4.15;;;;;;;;;;5031082;28;25089;-76
2023/08/15 06:34:54;;;;;;;17.40;4.75;;;;;;;;;;5019264;28;25054;-79
2023/08/15 06:37:20;;;;;;;12.15;4.38;;;;;;;;;;5024276;28;25087;-80
2023/08/15 06:39:46;;;;;;;9.98;3.92;;;;;;;;;;5033075;28;25061;-78
2023/08/15 06:42:13;;;;;;;21.23;4.95;;;;;;;;;;5038688;28;25093;-78
2023/08/15 06:44:39;;;;;;;17.80;4.63;;;;;;;;;;5034712;28;25082;-78
2023/08/15 06:47:05;;;;;;;22.25;4.70;;;;;;;;;;5046514;28;25073;-79
2023/08/15 06:49:31;;;;;;;13.43;4.03;;;;;;;;;;5026070;28;25076;-80
2023/08/15 06:51:59;;;;;;;10.52;4.15;;;;;;;;;;5044217;28;25067;-80
2023/08/15 06:54:25;;;;;;;12.77;4.43;;;;;;;;;;5041861;28;25107;-77
2023/08/15 06:56:51;;;;;;;15.93;4.07;;;;;;;;;;5029775;28;25081;-78
2023/08/15 06:59:20;;;;;;;15.95;4.68;;;;;;;;;;5022342;28;25152;-77
2023/08/15 07:01:46;;;;;;;12.48;4.35;;;;;;;;;;5031577;28;25058;-77
2023/08/15 07:04:12;;;;;;;11.82;4.13;;;;;;;;;;5033469;28;25049;-77
2023/08/15 07:06:42;;;;;;;12.13;3.78;;;;;;;;;;5038385;28;25075;-78
2023/08/15 07:09:14;;;;;;;12.30;4.57;;;;;;;;;;5020308;28;25057;-79
2023/08/15 07:11:40;;;;;;;;;;;;;;;;;;5040469;28;25050;-79
2023/08/15 07:14:13;;;;;;;23.13;4.63;;;;;;;;;;5041284;28;24089;-79
2023/08/15 07:16:39;;;;;;;19.13;4.95;;;;;;;;;;5049825;28;25075;-77
2023/08/15 07:19:05;;;;;;;12.70;4.60;;;;;;;;;;5034719;28;25066;-81
2023/08/15 07:21:31;;;;;;;12.57;4.00;;;;;;;;;;5047682;28;25066;-81
2023/08/15 07:23:57;;;;;;;7.57;3.85;;;;;;;;;;5026398;28;25092;-78
2023/08/15 07:26:23;;;;;;;14.15;4.32;;;;;;;;;;5015973;28;25061;-77
2023/08/15 07:28:49;;;;;;;11.27;4.50;;;;;;;;;;5014052;28;25158;-73
2023/08/15 07:31:15;;;;;;;10.52;4.78;;;;;;;;;;5009270;28;25066;-74
2023/08/15 07:33:41;;;;;;;14.80;4.50;;;;;;;;;;5010729;28;25080;-77
2023/08/15 07:36:07;;;;;;;13.43;4.70;;;;;;;;;;5014252;28;25062;-77
2023/08/15 07:38:33;;;;;;;10.45;4.13;;;;;;;;;;5013626;28;25059;-77
2023/08/15 07:41:00;;;;;;;13.65;4.88;;;;;;;;;;5006833;28;25094;-76
2023/08/15 07:43:26;;;;;;;11.85;4.38;;;;;;;;;;5008763;28;25082;-77
2023/08/15 07:45:52;;;;;;;10.35;4.30;;;;;;;;;;5013780;28;25088;-77
2023/08/15 07:48:18;;;;;;;10.85;3.63;;;;;;;;;;5019356;28;25123;-79
2023/08/15 07:50:44;;;;;;;8.07;3.83;;;;;;;;;;5014309;28;25061;-76
2023/08/15 07:53:09;;;;;;;10.55;3.83;;;;;;;;;;5023725;28;25095;-75
2023/08/15 07:55:37;;;;;;;21.42;3.97;;;;;;;;;;5028365;28;25069;-75
2023/08/15 07:58:03;;;;;;;13.43;3.28;;;;;;;;;;5008541;28;25068;-75
2023/08/15 08:00:29;;;;;;;9.43;3.50;;;;;;;;;;5011164;28;25096;-74
2023/08/15 08:02:55;;;;;;;14.82;4.00;;;;;;;;;;5012916;28;25078;-73
2023/08/15 08:05:21;;;;;;;9.18;2.92;;;;;;;;;;5020133;28;25052;-73
2023/08/15 08:07:47;;;;;;;11.40;3.38;;;;;;;;;;5010603;28;25173;-75
2023/08/15 08:10:13;;;;;;;11.57;3.30;;;;;;;;;;5019014;28;25078;-74
2023/08/15 08:12:39;;;;;;;17.50;3.95;;;;;;;;;;5009359;28;25095;-74
2023/08/15 08:15:05;;;;;;;10.85;3.22;;;;;;;;;;5017852;28;25115;-77
2023/08/15 08:17:31;;;;;;;6.72;2.63;;;;;;;;;;5001106;28;25054;-74
2023/08/15 08:19:57;;;;;;;14.45;2.90;;;;;;;;;;5014516;28;25078;-74
2023/08/15 08:22:23;;;;;;;10.20;3.30;;;;;;;;;;4999512;28;25046;-73
2023/08/15 08:24:53;;;;;;;12.02;3.00;;;;;;;;;;5011793;28;25133;-76
2023/08/15 08:27:19;;;;;;;9.68;2.83;;;;;;;;;;5000427;28;25053;-75
2023/08/15 08:29:45;;;;;;;8.65;3.22;;;;;;;;;;5008110;28;25050;-74
2023/08/15 08:32:11;;;;;;;12.38;2.90;;;;;;;;;;5006923;28;25132;-74
2023/08/15 08:34:37;;;;;;;13.90;3.58;;;;;;;;;;5020928;28;25070;-75
2023/08/15 08:37:03;;;;;;;15.38;4.30;;;;;;;;;;5006214;28;25042;-74
2023/08/15 08:39:29;;;;;;;18.38;3.63;;;;;;;;;;4999355;28;25060;-73
2023/08/15 08:41:55;;;;;;;11.10;3.70;;;;;;;;;;4996815;28;25069;-75
2023/08/15 08:44:21;;;;;;;15.98;4.00;;;;;;;;;;5009896;28;25138;-73
2023/08/15 08:46:47;;;;;;;13.95;3.58;;;;;;;;;;5001292;28;25075;-74
2023/08/15 08:49:14;;;;;;;9.93;2.80;;;;;;;;;;5003867;28;25078;-75
2023/08/15 08:51:40;;;;;;;8.82;3.33;;;;;;;;;;5001043;28;25071;-78
2023/08/15 08:54:06;;;;;;;10.77;3.45;;;;;;;;;;5003705;28;25059;-73
2023/08/15 08:56:33;;;;;;;7.78;2.80;;;;;;;;;;5018829;28;25054;-75
2023/08/15 08:59:05;;;;;;;8.30;3.13;;;;;;;;;;5012859;28;24849;-73
2023/08/15 09:01:31;;;;;;;14.23;3.28;;;;;;;;;;5007566;28;25071;-76
2023/08/15 09:03:58;;;;;;;6.13;2.67;;;;;;;;;;5018087;28;25054;-75
2023/08/15 09:06:26;;;;;;;10.25;3.05;;;;;;;;;;5002488;28;25190;-74
2023/08/15 09:08:52;;;;;;;9.55;3.03;;;;;;;;;;5005226;28;25095;-73
2023/08/15 09:11:18;;;;;;;11.20;2.97;;;;;;;;;;5001913;28;25073;-73
2023/08/15 09:13:50;;;;;;;11.90;4.03;;;;;;;;;;5013527;28;25067;-74
2023/08/15 09:16:16;;;;;;;9.90;2.80;;;;;;;;;;5019513;28;25064;-75
2023/08/15 09:18:43;;;;;;;12.02;2.65;;;;;;;;;;5004797;28;25054;-74
2023/08/15 09:21:09;;;;;;;8.32;3.28;;;;;;;;;;5008579;28;25100;-76
2023/08/15 09:23:35;;;;;;;8.85;3.40;;;;;;;;;;5023182;28;25063;-76
2023/08/15 09:26:14;;;;;;;9.45;3.15;;;;;;;;;;5011975;28;25080;-74
2023/08/15 09:28:43;;;;;;;11.23;3.60;;;;;;;;;;5017318;28;25061;-74
2023/08/15 09:31:10;;;;;;;11.05;4.15;;;;;;;;;;5004399;28;25089;-75
2023/08/15 09:33:37;;;;;;;10.68;3.33;;;;;;;;;;5021070;28;25065;-73
2023/08/15 09:36:04;;;;;;;10.15;3.42;;;;;;;;;;5009805;28;25081;-73
2023/08/15 09:38:30;;;;;;;13.65;3.53;;;;;;;;;;5006951;28;25086;-74
2023/08/15 09:40:56;;;;;;;8.75;2.95;;;;;;;;;;5007156;28;25092;-75
2023/08/15 09:43:22;;;;;;;12.40;4.00;;;;;;;;;;5018057;28;25068;-77
2023/08/15 09:45:49;;;;;;;7.57;2.65;;;;;;;;;;5004286;28;25099;-74
2023/08/15 09:48:17;;;;;;;11.23;3.63;;;;;;;;;;5013779;28;25070;-74
2023/08/15 09:50:44;;;;;;;11.98;3.40;;;;;;;;;;5005913;28;25088;-73
2023/08/15 09:53:10;;;;;;;15.35;3.38;;;;;;;;;;5016710;28;25094;-75
2023/08/15 09:55:36;;;;;;;15.75;3.55;;;;;;;;;;5010598;28;25108;-75
2023/08/15 09:58:03;;;;;;;7.25;2.53;;;;;;;;;;5018787;28;25091;-75
2023/08/15 10:00:30;;;;;;;11.45;2.65;;;;;;;;;;5015695;28;25079;-74
2023/08/15 10:03:10;;;;;;;5.63;2.70;;;;;;;;;;5020154;28;25096;-75
2023/08/15 10:05:37;;;;;;;9.35;3.38;;;;;;;;;;5013875;28;25054;-74
2023/08/15 10:08:03;;;;;;;10.63;3.03;;;;;;;;;;5023461;28;25104;-74
2023/08/15 10:10:30;;;;;;;6.00;2.80;;;;;;;;;;5017278;28;25068;-73
2023/08/15 10:12:57;;;;;;;6.47;2.30;;;;;;;;;;5018902;28;25047;-74
2023/08/15 10:15:24;;;;;;;7.47;2.80;;;;;;;;;;5006398;28;25054;-76
2023/08/15 10:17:50;;;;;;;11.10;4.28;;;;;;;;;;5019869;28;25074;-75
2023/08/15 10:20:18;;;;;;;8.45;2.83;;;;;;;;;;5024310;28;25075;-76
2023/08/15 10:22:44;;;;;;;9.15;2.50;;;;;;;;;;5023291;28;25126;-76
2023/08/15 10:25:28;;;;;;;4.97;2.00;;;;;;;;;;5019201;28;25055;-75
2023/08/15 10:27:56;;;;;;;8.90;3.17;;;;;;;;;;5006885;28;24739;-73
2023/08/15 10:30:40;;;;;;;7.63;2.35;;;;;;;;;;5009689;28;25073;-75
2023/08/15 10:33:13;;;;;;;5.78;2.22;;;;;;;;;;5011048;28;25070;-74
2023/08/15 10:35:42;;;;;;;5.82;2.25;;;;;;;;;;5008794;28;25051;-72
2023/08/15 10:38:15;;;;;;;10.10;2.35;;;;;;;;;;5014093;28;25077;-72
2023/08/15 10:40:42;;;;;;;10.30;3.50;;;;;;;;;;5024560;28;25073;-73
2023/08/15 10:43:10;;;;;;;8.85;2.83;;;;;;;;;;5025831;28;25080;-73
2023/08/15 10:45:41;;;;;;;14.77;3.15;;;;;;;;;;5026705;28;25106;-74
2023/08/15 10:48:07;;;;;;;12.65;4.57;;;;;;;;;;5016742;28;25067;-75
2023/08/15 10:50:34;;;;;;;7.57;2.78;;;;;;;;;;5026775;28;25075;-74
2023/08/15 10:53:01;;;;;;;8.30;2.83;;;;;;;;;;5024377;28;25060;-75
2023/08/15 10:55:27;;;;;;;8.38;3.33;;;;;;;;;;5029674;28;25064;-75
2023/08/15 10:57:55;;;;;;;7.85;3.03;;;;;;;;;;5021391;28;25111;-73
2023/08/15 11:00:23;;;;;;;7.00;3.35;;;;;;;;;;5028488;28;25053;-75
2023/08/15 11:02:52;;;;;;;6.25;2.55;;;;;;;;;;5023924;28;25062;-74
2023/08/15 11:05:19;;;;;;;7.20;3.20;;;;;;;;;;5030065;28;25057;-76
2023/08/15 11:07:45;;;;;;;5.35;1.92;;;;;;;;;;5036395;28;25084;-74
2023/08/15 11:10:14;;;;;;;4.68;1.83;;;;;;;;;;5029143;28;25102;-74
2023/08/15 11:12:50;;;;;;;4.25;1.90;;;;;;;;;;5018149;28;25105;-72
2023/08/15 11:15:16;;;;;;;2.65;1.40;;;;;;;;;;5027786;28;25140;-73
2023/08/15 11:17:48;;;;;;;1.23;1.13;;;;;;;;;;5027998;28;25068;-73
2023/08/15 11:20:14;;;;;;;0.85;0.85;;;;;;;;;;5031402;28;25072;-73
2023/08/15 11:22:40;;;;;;;1.52;0.82;;;;;;;;;;5025225;28;25046;-73
2023/08/15 11:25:10;;;;;;;3.40;0.93;;;;;;;;;;5023378;28;25073;-75
2023/08/15 11:27:39;;;;;;;0.90;0.85;;;;;;;;;;5021535;28;25058;-74
2023/08/15 11:30:06;;;;;;;2.72;1.05;;;;;;;;;;5020631;28;25059;-75
2023/08/15 11:32:32;;;;;;;0.50;0.50;;;;;;;;;;5014801;28;25090;-77
2023/08/15 11:34:59;;;;;;;2.72;0.93;;;;;;;;;;5026300;28;25116;-76
2023/08/15 11:37:25;;;;;;;0.80;0.77;;;;;;;;;;5016502;28;25047;-74
2023/08/15 11:39:52;;;;;;;1.10;1.00;;;;;;;;;;5012602;28;25168;-74
2023/08/15 11:42:18;;;;;;;1.23;0.80;;;;;;;;;;5015717;28;25055;-74
2023/08/15 11:44:44;;;;;;;1.92;1.00;;;;;;;;;;5020286;28;25098;-74
2023/08/15 11:47:14;;;;;;;2.60;1.00;;;;;;;;;;5004996;28;25096;-74
2023/08/15 11:49:40;;;;;;;1.33;1.10;;;;;;;;;;5005259;28;25068;-75
2023/08/15 11:52:06;;;;;;;1.23;1.13;;;;;;;;;;5008727;28;25049;-77
2023/08/15 11:54:32;;;;;;;2.30;1.27;;;;;;;;;;5009857;28;25059;-74
2023/08/15 11:56:58;;;;;;;1.42;1.20;;;;;;;;;;5000636;28;25056;-73
2023/08/15 11:59:24;;;;;;;1.88;1.30;;;;;;;;;;5002638;28;25078;-75
2023/08/15 12:01:50;;;;;;;3.85;1.40;;;;;;;;;;5000845;28;25113;-73
2023/08/15 12:04:16;;;;;;;3.13;1.40;;;;;;;;;;4999882;28;25077;-75
2023/08/15 12:06:42;;;;;;;3.30;1.42;;;;;;;;;;5001788;28;25066;-73
2023/08/15 12:09:08;;;;;;;2.78;1.38;;;;;;;;;;5003948;28;25061;-74
2023/08/15 12:11:35;;;;;;;1.30;1.20;;;;;;;;;;5008015;28;25123;-72
2023/08/15 12:14:02;;;;;;;2.35;1.00;;;;;;;;;;5003670;28;25061;-74
2023/08/15 12:16:28;;;;;;;2.05;1.50;;;;;;;;;;5007918;28;25069;-75
2023/08/15 12:18:54;;;;;;;1.42;1.30;;;;;;;;;;5010736;28;25060;-73
2023/08/15 12:21:20;;;;;;;1.30;1.10;;;;;;;;;;5023695;28;25069;-73
2023/08/15 12:23:46;;;;;;;1.52;1.40;;;;;;;;;;5012184;28;25050;-74
2023/08/15 12:26:12;;;;;;;6.70;1.45;;;;;;;;;;5010782;28;25097;-71
2023/08/15 12:28:38;;;;;;;1.58;1.17;;;;;;;;;;5006725;28;25173;-72
2023/08/15 12:31:04;;;;;;;1.23;1.13;;;;;;;;;;5001480;28;25048;-74
2023/08/15 12:33:34;;;;;;;2.17;1.00;;;;;;;;;;5007886;28;25070;-73
2023/08/15 12:36:03;;;;;;;2.42;0.63;;;;;;;;;;5009984;28;25127;-74
2023/08/15 12:38:29;;;;;;;1.00;0.80;;;;;;;;;;5017314;28;25063;-74
2023/08/15 12:40:55;;;;;;;1.45;1.00;;;;;;;;;;5008536;28;25080;-74
2023/08/15 12:43:22;;;;;;;1.77;0.93;;;;;;;;;;5014330;28;25113;-74
2023/08/15 12:45:48;;;;;;;0.70;0.57;;;;;;;;;;5004891;28;25156;-73
2023/08/15 12:48:14;;;;;;;0.73;0.60;;;;;;;;;;5011042;28;25062;-74
2023/08/15 12:50:40;;;;;;;2.00;0.80;;;;;;;;;;5009599;28;25093;-74
2023/08/15 12:53:08;;;;;;;0.63;0.60;;;;;;;;;;5007293;28;25079;-74
2023/08/15 12:55:34;;;;;;;3.42;1.17;;;;;;;;;;5005711;28;25078;-75
2023/08/15 12:58:02;;;;;;;1.75;0.60;;;;;;;;;;5022100;28;25076;-73
2023/08/15 13:00:28;;;;;;;1.35;0.60;;;;;;;;;;5006300;28;25103;-73
2023/08/15 13:02:54;;;;;;;1.05;0.73;;;;;;;;;;5012783;28;25101;-73
2023/08/15 13:05:20;;;;;;;1.88;1.55;;;;;;;;;;5012118;28;25120;-73
2023/08/15 13:07:46;;;;;;;1.45;0.73;;;;;;;;;;5002154;28;25089;-75
2023/08/15 13:10:12;;;;;;;1.50;0.60;;;;;;;;;;5020793;28;25067;-74
2023/08/15 13:12:38;;;;;;;0.98;0.75;;;;;;;;;;5018209;28;25057;-74
2023/08/15 13:15:06;;;;;;;2.70;0.90;;;;;;;;;;5023391;28;25083;-74
2023/08/15 13:17:32;;;;;;;0.70;0.70;;;;;;;;;;5024991;28;25054;-76
2023/08/15 13:19:58;;;;;;;1.58;0.93;;;;;;;;;;5031142;28;25088;-74
2023/08/15 13:22:24;;;;;;;0.90;0.85;;;;;;;;;;5033977;28;25077;-75
2023/08/15 13:24:50;;;;;;;2.90;1.05;;;;;;;;;;5023870;28;25073;-77
2023/08/15 13:27:16;;;;;;;1.95;1.02;;;;;;;;;;5011350;28;25072;-74
2023/08/15 13:29:42;;;;;;;2.55;0.80;;;;;;;;;;5030706;28;25057;-75
2023/08/15 13:32:08;;;;;;;2.38;1.10;;;;;;;;;;5022742;28;25122;-78
2023/08/15 13:34:34;;;;;;;2.80;1.55;;;;;;;;;;5018228;28;25159;-75
2023/08/15 13:37:00;;;;;;;1.83;1.00;;;;;;;;;;5019612;28;25065;-75
2023/08/15 13:39:26;;;;;;;1.85;1.10;;;;;;;;;;5015896;28;25060;-73
2023/08/15 13:41:51;;;;;;;5.78;1.20;;;;;;;;;;5028632;28;25064;-73
2023/08/15 13:44:18;;;;;;;2.83;1.30;;;;;;;;;;5019846;28;25100;-73
2023/08/15 13:46:45;;;;;;;1.90;1.23;;;;;;;;;;5028495;28;25041;-73
2023/08/15 13:49:11;;;;;;;3.25;1.15;;;;;;;;;;5002905;28;25067;-74
2023/08/15 13:51:37;;;;;;;4.90;1.20;;;;;;;;;;5013150;28;25086;-76
2023/08/15 13:54:04;;;;;;;3.28;1.30;;;;;;;;;;5017436;28;25069;-76
2023/08/15 13:56:30;;;;;;;3.30;1.13;;;;;;;;;;5022114;28;25052;-72
2023/08/15 13:58:56;;;;;;;8.93;1.27;;;;;;;;;;5016786;28;25055;-73
2023/08/15 14:01:22;;;;;;;1.58;1.35;;;;;;;;;;5024064;28;25072;-74
2023/08/15 14:03:48;;;;;;;7.35;1.35;;;;;;;;;;5030464;28;25099;-74
2023/08/15 14:06:14;;;;;;;3.40;1.20;;;;;;;;;;5028771;28;25082;-73
2023/08/15 14:08:40;;;;;;;3.50;1.35;;;;;;;;;;5031002;28;25092;-75
2023/08/15 14:11:06;;;;;;;3.97;1.50;;;;;;;;;;5032284;28;25048;-73
2023/08/15 14:13:32;;;;;;;2.30;1.20;;;;;;;;;;5017019;28;25058;-72
2023/08/15 14:15:58;;;;;;;2.75;1.25;;;;;;;;;;5024320;28;25059;-74
2023/08/15 14:18:25;;;;;;;5.88;1.48;;;;;;;;;;5030458;28;25189;-74
2023/08/15 14:20:51;;;;;;;5.75;1.40;;;;;;;;;;5023932;28;25061;-74
2023/08/15 14:23:17;;;;;;;4.38;1.35;;;;;;;;;;5012155;28;25092;-75
2023/08/15 14:25:43;;;;;;;3.45;1.67;;;;;;;;;;5012941;28;25078;-74
2023/08/15 14:28:08;;;;;;;2.00;1.42;;;;;;;;;;5019285;28;25069;-73
2023/08/15 14:30:34;;;;;;;4.18;1.67;;;;;;;;;;5015516;28;25058;-75
2023/08/15 14:33:01;;;;;;;4.05;1.30;;;;;;;;;;5014960;28;25057;-77